Aviation Digital Data Service (ADDS)

Output produced by METARs form (1319 UTC 28 November 2014)
found at http://aviationweather.gov/adds/metars/
 
KLAX 281130Z 2812/2918 VRB03KT P6SM SKC 
     FM282000 25007KT P6SM SKC 
     FM290300 VRB03KT P6SM SCT200 
     FM291100 VRB03KT 4SM BR OVC007 
     FM291600 VRB03KT P6SM BKN012